Tiempo atmosférico en la estación meteorológica de Carrión De Los Céspedes, Sevilla (76 m.)



Fecha
DESCASC
Temp. máxima en grados centígrados (hora)
DESCASC
Temp. mínima en grados centígrados (hora)
DESCASC
Temp. media en grados centígrados
DESCASC
Racha de viento máxima en m/sg (hora)
DESCASC
Velocidad máxima media en intervalos de 10 minutos(hora)
DESCASC
Precipitaciones diarias en mm
DESCASC
Precipitaciones de 00:00 a 06:00 en mm
DESCASC
Precipitaciones de 06:00 a 12:00 en mm
DESCASC
Precipitaciones de 12:00 a 18:00 en mm
DESCASC
Precipitaciones de 18:00 a 24:00 en mm
DESCASC
22-04-2019 24.3 (15:10) 8 (07:30) 16.1 12.22 (16:50) 7.22 (18:20) 0 0 0 0 0
21-04-2019 22.1 (15:30) 10.3 (08:30) 16.2 9.17 (15:40) 5 (15:40) 0 0 0 0 0
20-04-2019 20.4 (18:00) 9.5 (03:20) 14.9 10 (20:20) 5.56 (19:10) 0 0 0 0 0
19-04-2019 19.7 (14:50) 7.7 (07:40) 13.7 7.78 (17:50) 6.11 (18:20) 0.6 0 0 0 0.6
18-04-2019 19.5 (14:30) 9.4 (00:00) 14.4 8.61 (15:40) 5.28 (15:40) 3 0 3 0 0
17-04-2019 21.4 (14:00) 9.1 (00:00) 15.3 14.17 (17:00) 9.17 (17:00) 0 0 0 0 0
16-04-2019 25.6 (17:20) 7.7 (00:00) 16.7 7.22 (19:00) 4.17 (19:00) 0 0 0 0 0
15-04-2019 25.4 (15:30) 10.7 (00:00) 18 11.11 (17:50) 7.22 (16:20) 0 0 0 0 0
14-04-2019 27.5 (17:50) 9.5 (00:00) 18.5 5.28 (10:50) 3.33 (20:00) 0 0 0 0 0
13-04-2019 25.9 (17:10) 7.4 (00:00) 16.6 8.33 (17:30) 5.56 (19:20) 0 0 0 0 0
12-04-2019 24.3 (17:50) 7.3 (00:00) 15.8 8.33 (18:50) 5.56 (19:30) 0 0 0 0 0
11-04-2019 23 (18:50) 6.1 (00:00) 14.5 5.83 (16:50) 2.78 (16:50) 0 0 0 0 0
10-04-2019 21.1 (17:20) 6.6 (00:00) 13.9 10.28 (16:40) 5.56 (13:00) 0 0 0 0 0
09-04-2019 18.8 (15:30) 7.3 (00:00) 13 10.83 (15:10) 7.5 (18:00) 0 0 0 0 0
08-04-2019 17.9 (14:10) 11 (00:00) 14.4 10.28 (20:00) 6.39 (19:20) 14.8 0 8.4 6.4 0
07-04-2019 16.4 (15:30) 8.1 (00:00) 12.3 11.11 (19:40) 7.5 (19:40) 4.2 0.2 0 1.4 2.6
06-04-2019 16.1 (16:20) 6.3 (00:00) 11.2 12.78 (14:40) 7.5 (14:30) 5.6 0 0.2 5.2 0.2
05-04-2019 16.1 (17:20) 8.1 (00:00) 12.1 15.56 (18:50) 9.72 (13:00) 9.4 3.6 3.6 0 2.2
04-04-2019 20.2 (16:50) 4.6 (00:00) 12.4 12.22 (19:00) 6.94 (18:40) 0 0 0 0 0
03-04-2019 21.5 (14:50) 8.1 (08:20) 14.8 11.67 (17:10) 7.22 (16:20) 0 0 0 0 0
02-04-2019 22.8 (18:10) 9.3 (00:00) 16 5 (20:10) 3.06 (11:00) 0 0 0 0 0
01-04-2019 18.1 (13:20) 11.3 (00:00) 14.7 8.89 (14:00) 5.28 (14:00) 38.2 3.6 7.8 25.8 1
31-03-2019 21.6 (16:50) 12 (00:00) 16.8 8.06 (18:10) 4.72 (18:30) 0 0 0 0 0
30-03-2019 24.4 (16:50) 7.7 (00:00) 16 9.17 (12:30) 5 (10:50) 0 0 0 0 0
29-03-2019 23.6 (16:40) 6.1 (00:00) 14.9 6.67 (17:10) 4.17 (10:50) 0 0 0 0 0
28-03-2019 22.8 (16:30) 6.3 (00:00) 14.5 11.39 (12:00) 7.22 (11:20) 0 0 0 0 0
27-03-2019 22.5 (16:50) 7.8 (00:00) 15.2 11.11 (11:30) 6.94 (11:30) 0 0 0 0 0
26-03-2019 26.8 (15:00) 10.6 (00:00) 18.7 11.11 (15:20) 6.94 (11:40) 0 0 0 0 0
25-03-2019 24.7 (16:50) 8 (00:00) 16.4 11.39 (16:10) 6.94 (16:30) 0 0 0 0 0

Gráficas

Temp. máximas Temp. mínimas Temp. medias Precipitaciones Rachas de viento máximas Velocidades máximas media en intervalos de 10 minutos

Datos horarios

Fecha y hora oficial Temperatura (ºC) Velocidad del viento (km/h) Dirección del viento Racha (km/h) Dirección de racha Precipitación (mm) Presión (hPa) Tendencia (hPa) Humedad (%)
2019-04-23 23:00:00 10.7 8 Oeste 16 Sudoeste 0 -- -- 84
2019-04-23 22:00:00 11.3 6 Oeste 11 Sudoeste 0 -- -- 81
2019-04-23 21:00:00 12.4 5 Oeste 19 Sudoeste 0 -- -- 78
2019-04-23 20:00:00 12.7 13 Oeste 32 Oeste 0.2 -- -- 76
2019-04-23 19:00:00 13.3 24 Oeste 37 Oeste 0 -- -- 71
2019-04-23 18:00:00 16.1 22 Oeste 47 Oeste 0 -- -- 52
2019-04-23 17:00:00 16.9 27 Oeste 45 Oeste 0 -- -- 51
2019-04-23 16:00:00 16.4 31 Noroeste 53 Oeste 0 -- -- 52
2019-04-23 15:00:00 16.2 25 Oeste 37 Oeste 0 -- -- 56
2019-04-23 14:00:00 14.3 37 Noroeste 57 Noroeste 0 -- -- 70
2019-04-23 13:00:00 14.6 15 Noroeste 31 Oeste 0 -- -- 70
2019-04-23 12:00:00 12.8 18 Oeste 34 Oeste 0.2 -- -- 77
2019-04-23 11:00:00 13.6 19 Oeste 29 Oeste 0 -- -- 72
2019-04-23 10:00:00 12.4 18 Noroeste 28 Oeste 0 -- -- 80
2019-04-23 09:00:00 10.4 10 Oeste 20 Oeste 0 -- -- 94
2019-04-23 08:00:00 10.4 13 Oeste 23 Oeste 0 -- -- 94
2019-04-23 07:00:00 10.5 14 Noroeste 23 Noroeste 0.2 -- -- 93
2019-04-23 06:00:00 10.9 14 Noroeste 37 Noroeste 3.6 -- -- 94
2019-04-23 05:00:00 12.6 19 Oeste 42 Sudoeste 4.4 -- -- 94
2019-04-23 04:00:00 14 8 Sur 20 Sudoeste 0.6 -- -- 93
2019-04-23 03:00:00 14.5 10 Sudoeste 24 Sudoeste 0 -- -- 87
2019-04-23 02:00:00 14.5 13 Sudoeste 28 Sudoeste 0 -- -- 82
2019-04-23 01:00:00 14.6 14 Sudoeste 32 Oeste 0 -- -- 78
2019-04-23 00:00:00 14.8 18 Oeste 38 Oeste 0 -- -- 78
2019-04-22 23:00:00 15 21 Sudoeste 42 Sudoeste 0 -- -- 79
2019-04-22 22:00:00 15.5 22 Sudoeste 40 Sudoeste 0 -- -- 81
2019-04-22 21:00:00 16.7 19 Sudoeste 36 Sudoeste 0 -- -- 75
2019-04-22 20:00:00 19.2 23 Sudoeste 40 Oeste 0 -- -- 57
2019-04-22 19:00:00 21.8 21 Oeste 42 Oeste 0 -- -- 48
2019-04-22 18:00:00 23.2 24 Oeste 40 Oeste 0 -- -- 44
2019-04-22 17:00:00 24.3 25 Oeste 44 Oeste 0 -- -- 43
2019-04-22 16:00:00 24.1 18 Oeste 36 Oeste 0 -- -- 36
2019-04-22 15:00:00 23.9 15 Oeste 33 Noroeste 0 -- -- 40
2019-04-22 14:00:00 22.8 14 Oeste 26 Noroeste 0 -- -- 47
2019-04-22 13:00:00 21.1 8 Oeste 19 Sudoeste 0 -- -- 54
2019-04-22 12:00:00 19.2 7 Sur 18 Sudoeste 0 -- -- 61
2019-04-22 11:00:00 16.1 4 Sudeste 10 Sudeste 0 -- -- 69
2019-04-22 10:00:00 11.4 0 Calma -- -- 0 -- -- 94
2019-04-22 09:00:00 10.1 0 Calma 5 Noroeste 0 -- -- 94
2019-04-22 08:00:00 8.1 4 Oeste 6 Norte 0 -- -- 94
2019-04-22 07:00:00 8.7 0 Calma 4 Noroeste 0 -- -- 93
2019-04-22 06:00:00 9.8 0 Calma 3 Norte 0 -- -- 91
2019-04-22 05:00:00 10.8 2 Norte 6 Noroeste 0 -- -- 90
2019-04-22 04:00:00 11.3 4 Noroeste 6 Noroeste 0 -- -- 90
2019-04-22 03:00:00 11.3 0 Calma 5 Noroeste 0 -- -- 88
2019-04-22 02:00:00 10.7 0 Calma 6 Noroeste 0 -- -- 89
2019-04-22 01:00:00 11.4 0 Calma 5 Norte 0 -- -- 86
2019-04-22 00:00:00 12.8 0 Calma 7 Noroeste 0 -- -- 81
2019-04-21 23:00:00 14.8 3 Noroeste 4 Noroeste 0 -- -- 77
2019-04-21 22:00:00 17.1 0 Calma 10 Este 0 -- -- 65
2019-04-21 21:00:00 18.6 8 Este 21 Este 0 -- -- 58
2019-04-21 20:00:00 20.3 9 Este 23 Este 0 -- -- 50
2019-04-21 19:00:00 20.9 12 Este 21 Nordeste 0 -- -- 44
2019-04-21 18:00:00 21.3 12 Nordeste 28 Este 0 -- -- 43
2019-04-21 17:00:00 21.3 14 Nordeste 29 Nordeste 0 -- -- 46
2019-04-21 16:00:00 21.4 15 Nordeste 33 Este 0 -- -- 44
2019-04-21 15:00:00 21.3 8 Este 30 Nordeste 0 -- -- 48
2019-04-21 14:00:00 20.1 17 Este 31 Este 0 -- -- 50
2019-04-21 13:00:00 19.4 13 Nordeste 26 Este 0 -- -- 52
2019-04-21 12:00:00 18.5 15 Este 29 Este 0 -- -- 55
2019-04-21 11:00:00 17 12 Nordeste 24 Nordeste 0 -- -- 57
2019-04-21 10:00:00 15 12 Nordeste 23 Nordeste 0 -- -- 66
2019-04-21 09:00:00 11 4 Norte 8 Norte 0 -- -- 85
2019-04-21 08:00:00 11.1 3 Norte 8 Norte 0 -- -- 83
2019-04-21 07:00:00 12.9 4 Norte 14 Nordeste 0 -- -- 75
2019-04-21 06:00:00 13.2 6 Nordeste 14 Nordeste 0 -- -- 74
2019-04-21 05:00:00 13.4 5 Nordeste 12 Nordeste 0 -- -- 75
2019-04-21 04:00:00 13.9 8 Nordeste 21 Nordeste 0 -- -- 71
2019-04-21 03:00:00 14.8 12 Nordeste 22 Nordeste 0 -- -- 66
2019-04-21 02:00:00 14.7 9 Nordeste 20 Nordeste 0 -- -- 68
2019-04-21 01:00:00 14.8 9 Nordeste 15 Nordeste 0 -- -- 68
2019-04-21 00:00:00 14.5 5 Norte 19 Nordeste 0 -- -- 72
2019-04-20 23:00:00 15.8 13 Nordeste 23 Nordeste 0 -- -- 65
2019-04-20 22:00:00 16.3 10 Norte 26 Nordeste 0 -- -- 64
2019-04-20 21:00:00 17.1 13 Nordeste 36 Nordeste 0 -- -- 61
2019-04-20 20:00:00 18.9 16 Nordeste 32 Nordeste 0 -- -- 55
2019-04-20 19:00:00 20.3 17 Nordeste 34 Este 0 -- -- 52
2019-04-20 18:00:00 20.4 17 Nordeste 31 Este 0 -- -- 53
2019-04-20 17:00:00 19.6 11 Nordeste 19 Este 0 -- -- 59
2019-04-20 16:00:00 19.5 11 Este 27 Este 0 -- -- 59
2019-04-20 15:00:00 19.2 14 Nordeste 26 Nordeste 0 -- -- 58
2019-04-20 14:00:00 18.2 14 Nordeste 27 Nordeste 0 -- -- 62
2019-04-20 13:00:00 17 9 Nordeste 25 Este 0 -- -- 68
2019-04-20 12:00:00 16 12 Nordeste 23 Nordeste 0 -- -- 71
2019-04-20 11:00:00 14.5 8 Nordeste 20 Norte 0 -- -- 79
2019-04-20 10:00:00 12.1 6 Norte 12 Norte 0 -- -- 85
2019-04-20 09:00:00 11 5 Norte 17 Nordeste 0 -- -- 87
2019-04-20 08:00:00 11.1 12 Nordeste 20 Nordeste 0 -- -- 88
2019-04-20 07:00:00 9.8 4 Norte 8 Norte 0 -- -- 95
2019-04-20 06:00:00 10.2 3 Noroeste 14 Norte 0 -- -- 92
2019-04-20 05:00:00 9.9 3 Oeste 14 Nordeste 0 -- -- 94
2019-04-20 04:00:00 9.9 5 Nordeste 10 Nordeste 0 -- -- 97
2019-04-20 03:00:00 9.8 0 Calma 5 Noroeste 0 -- -- 95
2019-04-20 02:00:00 10.9 3 Norte 5 Noroeste 0 -- -- 93
2019-04-20 01:00:00 12 3 Nordeste 11 Nordeste 0 -- -- 92
2019-04-20 00:00:00 12.9 5 Nordeste 12 Nordeste 0.2 -- -- 91
2019-04-19 23:00:00 13.6 5 Nordeste 10 Norte 0.2 -- -- 89
2019-04-19 22:00:00 14.4 3 Norte 22 Norte 0.2 -- -- 82
2019-04-19 21:00:00 16.4 9 Norte 21 Noroeste 0 -- -- 72
2019-04-19 20:00:00 17.7 15 Oeste 27 Oeste 0 -- -- 68
2019-04-19 19:00:00 17.2 17 Oeste 28 Oeste 0 -- -- 63
2019-04-19 18:00:00 18.1 19 Noroeste 28 Noroeste 0 -- -- 59
2019-04-19 17:00:00 18.9 11 Norte 23 Norte 0 -- -- 62
2019-04-19 16:00:00 19.3 7 Norte 18 Norte 0 -- -- 51
2019-04-19 15:00:00 19.2 6 Nordeste 11 Oeste 0 -- -- 55
2019-04-19 14:00:00 19 3 Noroeste 13 Este 0 -- -- 54
2019-04-19 13:00:00 17.4 5 Sudeste 13 Este 0 -- -- 66
2019-04-19 12:00:00 15.6 7 Este 13 Este 0 -- -- 74
2019-04-19 11:00:00 12.3 2 Oeste 9 Nordeste 0 -- -- 94
2019-04-19 10:00:00 9.9 2 Este 6 Norte 0 -- -- 98
2019-04-19 09:00:00 8.6 3 Noroeste 10 Noroeste 0 -- -- 96
2019-04-19 08:00:00 7.9 0 Calma 7 Noroeste 0 -- -- 97
2019-04-19 07:00:00 8.2 2 Oeste 5 Oeste 0 -- -- 96
2019-04-19 06:00:00 9 2 Noroeste 5 Noroeste 0 -- -- 96
2019-04-19 05:00:00 9.5 0 Calma 5 Noroeste 0 -- -- 96
2019-04-19 04:00:00 9.2 0 Calma 4 Sur 0 -- -- 94
2019-04-19 03:00:00 9.8 0 Calma 9 Norte 0 -- -- 93
2019-04-19 02:00:00 10.3 0 Calma 5 Noroeste 0 -- -- 92
2019-04-19 01:00:00 10.4 0 Calma 4 Norte 0 -- -- 91
2019-04-19 00:00:00 10.5 4 Norte 7 Norte 0 -- -- 90
2019-04-18 23:00:00 11.2 2 Noroeste 5 Norte 0 -- -- 88
2019-04-18 22:00:00 12.3 0 Calma 6 Oeste 0 -- -- 83
2019-04-18 21:00:00 14.4 5 Noroeste 12 Norte 0 -- -- 75
2019-04-18 20:00:00 15.4 3 Norte 18 Noroeste 0 -- -- 68
2019-04-18 19:00:00 16 10 Noroeste 21 Noroeste 0 -- -- 66
2019-04-18 18:00:00 15.1 12 Noroeste 24 Oeste 0 -- -- 75
2019-04-18 17:00:00 15.6 13 Oeste 29 Oeste 0 -- -- 70
2019-04-18 16:00:00 17.2 19 Oeste 31 Noroeste 0 -- -- 75
2019-04-18 15:00:00 19 17 Oeste 29 Oeste 0 -- -- 66
2019-04-18 14:00:00 19 11 Sur 20 Sur 0 -- -- 65
2019-04-18 13:00:00 18.2 7 Sur 14 Sudeste 0 -- -- 64
2019-04-18 12:00:00 16.4 4 Sudeste 10 Sur 0 -- -- 71
2019-04-18 11:00:00 14.6 3 Sudeste 12 Nordeste 0 -- -- 87
2019-04-18 10:00:00 12.6 5 Noroeste 14 Norte 0 -- -- 97
2019-04-18 09:00:00 11.6 3 Este 11 Oeste 0.2 -- -- 97
2019-04-18 08:00:00 11.3 5 Nordeste 12 Sudoeste 2.8 -- -- 96
2019-04-18 07:00:00 10.2 0 Calma 2 Sudeste 0 -- -- 97
2019-04-18 06:00:00 9.4 0 Calma 6 Norte 0 -- -- 96
2019-04-18 05:00:00 9.7 3 Noroeste 5 Noroeste 0 -- -- 95
2019-04-18 04:00:00 10.5 0 Calma 5 Noroeste 0 -- -- 93
2019-04-18 03:00:00 11 2 Noroeste 4 Oeste 0 -- -- 93
2019-04-18 02:00:00 11.4 2 Noroeste 5 Noroeste 0 -- -- 91
2019-04-18 01:00:00 12.2 0 Calma 5 Sudeste 0 -- -- 88
2019-04-18 00:00:00 13.4 2 Sudeste 5 Sudoeste 0 -- -- 86
2019-04-17 23:00:00 13.9 4 Sudoeste 10 Oeste 0 -- -- 83
2019-04-17 22:00:00 14.3 6 Sudoeste 11 Oeste 0 -- -- 81
2019-04-17 21:00:00 15.2 6 Sudeste 13 Sudeste 0 -- -- 76
2019-04-17 20:00:00 15.6 3 Sur 22 Oeste 0 -- -- 71
2019-04-17 19:00:00 15.5 10 Oeste 22 Oeste 0 -- -- 71
2019-04-17 18:00:00 15.4 16 Oeste 46 Noroeste 0 -- -- 71
2019-04-17 17:00:00 17 33 Oeste 51 Oeste 0 -- -- 67
2019-04-17 16:00:00 20.8 19 Sudoeste 39 Sudoeste 0 -- -- 59
2019-04-17 15:00:00 20.7 22 Sudoeste 44 Sur 0 -- -- 59
2019-04-17 14:00:00 21.4 25 Sur 42 Sur 0 -- -- 60
2019-04-17 13:00:00 20 10 Sur 36 Sur 0 -- -- 66
2019-04-17 12:00:00 18.4 11 Sur 20 Sur 0 -- -- 67
2019-04-17 11:00:00 16.8 5 Noroeste 10 Noroeste 0 -- -- 73
2019-04-17 10:00:00 13.6 3 Noroeste 10 Noroeste 0 -- -- 86
2019-04-17 09:00:00 10.5 3 Noroeste 11 Norte 0 -- -- 92
2019-04-17 08:00:00 9.8 3 Noroeste 9 Noroeste 0 -- -- 91
2019-04-17 07:00:00 9.5 4 Oeste 7 Oeste 0 -- -- 93
2019-04-17 06:00:00 9.2 2 Noroeste 9 Noroeste 0 -- -- 94
2019-04-17 05:00:00 9.2 0 Calma 6 Noroeste 0 -- -- 93
2019-04-17 04:00:00 10 0 Calma 3 Oeste 0 -- -- 90
2019-04-17 03:00:00 11.3 0 Calma 5 Norte 0 -- -- 87
2019-04-17 02:00:00 12.1 0 Calma 6 Noroeste 0 -- -- 85
2019-04-17 01:00:00 13.6 0 Calma 12 Noroeste 0 -- -- 80
2019-04-17 00:00:00 15.7 6 Noroeste 10 Noroeste 0 -- -- 65
2019-04-16 23:00:00 15.7 0 Calma 5 Oeste 0 -- -- 69
2019-04-16 22:00:00 18 4 Sur 10 Oeste 0 -- -- 59
2019-04-16 21:00:00 20.5 7 Sudoeste 21 Sudoeste 0 -- -- 49
2019-04-16 20:00:00 23.2 14 Sur 23 Sur 0 -- -- 39
2019-04-16 19:00:00 25.1 15 Sur 26 Sur 0 -- -- 36
2019-04-16 18:00:00 25.4 12 Sur 23 Sur 0 -- -- 36
2019-04-16 17:00:00 24.9 7 Sudeste 22 Sudeste 0 -- -- 36
2019-04-16 16:00:00 24.2 9 Sur 24 Sudeste 0 -- -- 40
2019-04-16 15:00:00 23.1 7 Sudeste 20 Sudeste 0 -- -- 44
2019-04-16 14:00:00 22.1 10 Sudeste 24 Sudeste 0 -- -- 50
2019-04-16 13:00:00 20.9 10 Este 19 Sudeste 0 -- -- 55
2019-04-16 12:00:00 19.2 7 Este 15 Este 0 -- -- 63
2019-04-16 11:00:00 16.2 4 Este 13 Nordeste 0 -- -- 77
2019-04-16 10:00:00 13.5 5 Nordeste 10 Nordeste 0 -- -- 88
2019-04-16 09:00:00 9.8 3 Norte 5 Norte 0 -- -- 94
2019-04-16 08:00:00 8.2 0 Calma 9 Oeste 0 -- -- 94
2019-04-16 07:00:00 8.2 4 Noroeste 8 Noroeste 0 -- -- 95
2019-04-16 06:00:00 8.1 2 Noroeste 5 Noroeste 0 -- -- 93
2019-04-16 05:00:00 9 0 Calma 5 Norte 0 -- -- 91
2019-04-16 04:00:00 10.1 4 Noroeste 6 Norte 0 -- -- 88
2019-04-16 03:00:00 10.9 4 Norte 10 Norte 0 -- -- 87
2019-04-16 02:00:00 11.8 4 Noroeste 8 Noroeste 0 -- -- 83
2019-04-16 01:00:00 12.5 7 Norte 9 Norte 0 -- -- 81
2019-04-16 00:00:00 13.5 3 Noroeste 11 Noroeste 0 -- -- 80
2019-04-15 23:00:00 15.3 6 Noroeste 14 Sudoeste 0 -- -- 79
2019-04-15 22:00:00 16.3 7 Sudoeste 21 Sudoeste 0 -- -- 77
2019-04-15 21:00:00 18.4 13 Sudoeste 30 Oeste 0 -- -- 70
2019-04-15 20:00:00 19.6 14 Sudoeste 33 Sudoeste 0 -- -- 70
2019-04-15 19:00:00 21.8 17 Oeste 38 Sudoeste 0 -- -- 59
2019-04-15 18:00:00 23.1 24 Oeste 40 Oeste 0 -- -- 52
2019-04-15 17:00:00 25 23 Oeste 38 Oeste 0 -- -- 46
2019-04-15 16:00:00 25.4 19 Oeste 38 Oeste 0 -- -- 39
2019-04-15 15:00:00 25 18 Oeste 35 Oeste 0 -- -- 39
2019-04-15 14:00:00 24.2 18 Oeste 30 Oeste 0 -- -- 45
2019-04-15 13:00:00 23.5 11 Oeste 24 Oeste 0 -- -- 47
2019-04-15 12:00:00 22.1 7 Oeste 20 Oeste 0 -- -- 51
2019-04-15 11:00:00 19.3 6 Oeste 13 Oeste 0 -- -- 64
2019-04-15 10:00:00 15.4 4 Noroeste 11 Noroeste 0 -- -- 89
2019-04-15 09:00:00 11.1 0 Calma 4 Noroeste 0 -- -- 94
2019-04-15 08:00:00 11 0 Calma 7 Noroeste 0 -- -- 94
2019-04-15 07:00:00 10.9 0 Calma 6 Noroeste 0 -- -- 93
2019-04-15 06:00:00 11.3 3 Oeste 6 Noroeste 0 -- -- 93
2019-04-15 05:00:00 11.7 3 Norte 6 Noroeste 0 -- -- 92
2019-04-15 04:00:00 12.5 2 Norte 5 Norte 0 -- -- 90
2019-04-15 03:00:00 13.5 3 Norte 5 Noroeste 0 -- -- 89
2019-04-15 02:00:00 15 0 Calma 4 Norte 0 -- -- 86
2019-04-15 01:00:00 16.6 3 Norte 7 Norte 0 -- -- 79
2019-04-15 00:00:00 18 5 Norte 8 Norte 0 -- -- 73
2019-04-14 23:00:00 19.5 2 Noroeste 6 Noroeste 0 -- -- 70
2019-04-14 22:00:00 20.9 3 Noroeste 9 Noroeste 0 -- -- 69
2019-04-14 21:00:00 22.5 5 Noroeste 15 Oeste 0 -- -- 58
2019-04-14 20:00:00 24.8 12 Oeste 18 Oeste 0 -- -- 51
2019-04-14 19:00:00 26.7 5 Sudoeste 9 Sudoeste 0 -- -- 45
2019-04-14 18:00:00 27.5 4 Norte 13 Noroeste 0 -- -- 43
2019-04-14 17:00:00 26.6 3 Noroeste 13 Oeste 0 -- -- 45
2019-04-14 16:00:00 26 5 Este 15 Este 0 -- -- 46
2019-04-14 15:00:00 25.1 4 Norte 11 Sudoeste 0 -- -- 47
2019-04-14 14:00:00 23.8 3 Nordeste 9 Nordeste 0 -- -- 50
2019-04-14 13:00:00 22.8 6 Este 15 Este 0 -- -- 53
2019-04-14 12:00:00 21 6 Este 16 Este 0 -- -- 60
2019-04-14 11:00:00 18.4 10 Nordeste 19 Nordeste 0 -- -- 69
2019-04-14 10:00:00 15.4 5 Este 9 Este 0 -- -- 72
2019-04-14 09:00:00 11.1 2 Noroeste 4 Oeste 0 -- -- 90
2019-04-14 08:00:00 9.6 0 Calma 3 Noroeste 0 -- -- 91
2019-04-14 07:00:00 9.9 0 Calma 9 Noroeste 0 -- -- 89
2019-04-14 06:00:00 9.9 0 Calma 6 Noroeste 0 -- -- 90
2019-04-14 05:00:00 10.4 0 Calma 6 Noroeste 0 -- -- 87
2019-04-14 04:00:00 10.2 3 Norte 4 Norte 0 -- -- 89
2019-04-14 03:00:00 10.9 0 Calma 4 Oeste 0 -- -- 85
2019-04-14 02:00:00 11.7 0 Calma 5 Sudeste 0 -- -- 80
2019-04-14 01:00:00 12.9 0 Calma 6 Noroeste 0 -- -- 74
2019-04-14 00:00:00 14.4 4 Norte 10 Oeste 0 -- -- 64
2019-04-13 23:00:00 15.8 6 Oeste 15 Sudoeste 0 -- -- 58
2019-04-13 22:00:00 17 10 Oeste 21 Oeste 0 -- -- 54
2019-04-13 21:00:00 19.3 10 Oeste 21 Sudoeste 0 -- -- 50
2019-04-13 20:00:00 22.1 16 Oeste 29 Oeste 0 -- -- 43
2019-04-13 19:00:00 23.5 17 Oeste 30 Oeste 0 -- -- 40
2019-04-13 18:00:00 24.8 17 Oeste 30 Sudoeste 0 -- -- 37
2019-04-13 17:00:00 25.7 8 Oeste 21 Oeste 0 -- -- 32
2019-04-13 16:00:00 25.2 6 Sudoeste 18 Sudoeste 0 -- -- 35
2019-04-13 15:00:00 23.9 6 Sudeste 16 Sudeste 0 -- -- 37
2019-04-13 14:00:00 22.9 5 Noroeste 13 Oeste 0 -- -- 35
2019-04-13 13:00:00 22 4 Sudeste 14 Sudeste 0 -- -- 42
2019-04-13 12:00:00 20 5 Este 13 Sudeste 0 -- -- 50
2019-04-13 11:00:00 17.4 6 Nordeste 10 Este 0 -- -- 57
2019-04-13 10:00:00 14.5 4 Este 8 Este 0 -- -- 65
2019-04-13 09:00:00 9.3 2 Noroeste 7 Noroeste 0 -- -- 88
2019-04-13 08:00:00 7.4 5 Noroeste 8 Noroeste 0 -- -- 89
2019-04-13 07:00:00 7.5 3 Noroeste 7 Noroeste 0 -- -- 87
2019-04-13 06:00:00 8.9 6 Oeste 7 Oeste 0 -- -- 84
2019-04-13 05:00:00 9.8 3 Noroeste 10 Noroeste 0 -- -- 78
2019-04-13 04:00:00 10.3 3 Noroeste 8 Noroeste 0 -- -- 78
2019-04-13 03:00:00 10.5 3 Noroeste 9 Noroeste 0 -- -- 79
2019-04-13 02:00:00 11.6 5 Noroeste 12 Norte 0 -- -- 73
2019-04-13 01:00:00 11.6 5 Norte 8 Norte 0 -- -- 75
2019-04-13 00:00:00 12.9 5 Noroeste 13 Noroeste 0 -- -- 71
2019-04-12 23:00:00 14.3 6 Noroeste 15 Oeste 0 -- -- 65
2019-04-12 22:00:00 15.3 0 Calma 13 Oeste 0 -- -- 65
2019-04-12 21:00:00 18.2 9 Oeste 24 Oeste 0 -- -- 51
2019-04-12 20:00:00 21.4 13 Oeste 30 Oeste 0 -- -- 43
2019-04-12 19:00:00 23 17 Oeste 30 Oeste 0 -- -- 37
2019-04-12 18:00:00 24.2 5 Oeste 17 Noroeste 0 -- -- 33
2019-04-12 17:00:00 23.5 5 Noroeste 15 Noroeste 0 -- -- 36
2019-04-12 16:00:00 23.3 6 Oeste 15 Sudoeste 0 -- -- 34
2019-04-12 15:00:00 22.4 4 Sudoeste 15 Sur 0 -- -- 35
2019-04-12 14:00:00 21.6 6 Sudeste 18 Sudeste 0 -- -- 38
2019-04-12 13:00:00 19.9 6 Sudeste 16 Este 0 -- -- 45
2019-04-12 12:00:00 18.1 8 Este 16 Este 0 -- -- 54
2019-04-12 11:00:00 15.7 7 Este 14 Este 0 -- -- 63
2019-04-12 10:00:00 12.9 4 Nordeste 8 Nordeste 0 -- -- 73
2019-04-12 09:00:00 8.5 2 Noroeste 4 Noroeste 0 -- -- 90
2019-04-12 08:00:00 7.5 2 Noroeste 7 Oeste 0 -- -- 88
2019-04-12 07:00:00 9 0 Calma 4 Sudeste 0 -- -- 84
2019-04-12 06:00:00 8.3 2 Oeste 6 Sudoeste 0 -- -- 89
2019-04-12 05:00:00 8.4 2 Norte 8 Este 0 -- -- 90
2019-04-12 04:00:00 9 0 Calma 11 Sudeste 0 -- -- 87
2019-04-12 03:00:00 9.7 0 Calma 3 Noroeste 0 -- -- 84
2019-04-12 02:00:00 10.8 3 Noroeste 7 Noroeste 0 -- -- 82
2019-04-12 01:00:00 12 4 Noroeste 8 Noroeste 0 -- -- 75
2019-04-12 00:00:00 13 2 Noroeste 9 Noroeste 0 -- -- 67
2019-04-11 23:00:00 13.8 5 Noroeste 10 Norte 0 -- -- 69
2019-04-11 22:00:00 15.6 6 Norte 11 Norte 0 -- -- 63
2019-04-11 21:00:00 17.9 6 Sudoeste 17 Sudoeste 0 -- -- 63
2019-04-11 20:00:00 20.7 4 Sudeste 12 Sur 0 -- -- 52
2019-04-11 19:00:00 22.8 3 Nordeste 17 Oeste 0 -- -- 35
2019-04-11 18:00:00 22.4 9 Oeste 20 Sudoeste 0 -- -- 42
2019-04-11 17:00:00 22.6 6 Oeste 21 Oeste 0 -- -- 43
2019-04-11 16:00:00 21.3 3 Sur 14 Noroeste 0 -- -- 44
2019-04-11 15:00:00 20.2 4 Nordeste 15 Norte 0 -- -- 47
2019-04-11 14:00:00 19 7 Oeste 13 Oeste 0 -- -- 51
2019-04-11 13:00:00 17.6 4 Noroeste 12 Noroeste 0 -- -- 55
2019-04-11 12:00:00 15.9 5 Nordeste 11 Nordeste 0 -- -- 59
2019-04-11 11:00:00 14.2 4 Noroeste 9 Noroeste 0 -- -- 70
2019-04-11 10:00:00 10.6 3 Noroeste 10 Noroeste 0 -- -- 91
2019-04-11 09:00:00 7.4 2 Noroeste 4 Noroeste 0 -- -- 95
2019-04-11 08:00:00 6.2 0 Calma 5 Noroeste 0 -- -- 94
2019-04-11 07:00:00 6.8 3 Noroeste 9 Noroeste 0 -- -- 94
2019-04-11 06:00:00 7.1 3 Noroeste 9 Norte 0 -- -- 93
2019-04-11 05:00:00 7.6 4 Noroeste 9 Norte 0 -- -- 91
2019-04-11 04:00:00 8.1 2 Noroeste 9 Norte -- -- -- 90
2019-04-11 03:00:00 8.8 0 Calma 10 Noroeste 0 -- -- 86
2019-04-11 02:00:00 9.3 4 Noroeste 13 Noroeste 0 -- -- 84
2019-04-11 01:00:00 9.7 3 Noroeste 9 Noroeste 0 -- -- 83
2019-04-11 00:00:00 10.4 6 Norte 10 Norte 0 -- -- 79
2019-04-10 23:00:00 11.5 5 Norte 8 Noroeste 0 -- -- 76
2019-04-10 22:00:00 13.4 5 Noroeste 11 Noroeste 0 -- -- 69
2019-04-10 21:00:00 16.2 5 Noroeste 17 Noroeste 0 -- -- 58
2019-04-10 20:00:00 18.9 9 Noroeste 29 Norte 0 -- -- 46
2019-04-10 19:00:00 20.2 18 Noroeste 31 Noroeste 0 -- -- 41
2019-04-10 18:00:00 21.1 12 Noroeste 33 Noroeste 0 -- -- 42
2019-04-10 17:00:00 20.6 12 Noroeste 37 Noroeste 0 -- -- 41
2019-04-10 16:00:00 20.5 16 Noroeste 32 Noroeste 0 -- -- 42
2019-04-10 15:00:00 19.9 14 Noroeste 36 Noroeste 0 -- -- 45
2019-04-10 14:00:00 18.5 14 Noroeste 32 Oeste 0 -- -- 50
2019-04-10 13:00:00 17.1 20 Oeste 29 Noroeste 0 -- -- 55
2019-04-10 12:00:00 15 14 Oeste 24 Noroeste 0 -- -- 70
2019-04-10 11:00:00 13.4 11 Noroeste 21 Noroeste 0 -- -- 75
2019-04-10 10:00:00 11.4 14 Noroeste 21 Noroeste 0 -- -- 87
2019-04-10 09:00:00 7.9 7 Noroeste 13 Noroeste 0 -- -- 98
2019-04-10 08:00:00 6.8 4 Noroeste 10 Noroeste 0 -- -- 96
2019-04-10 07:00:00 7 7 Norte 8 Norte 0 -- -- 95
2019-04-10 06:00:00 7.8 3 Noroeste 15 Noroeste 0 -- -- 94
2019-04-10 05:00:00 8.6 8 Noroeste 14 Oeste 0 -- -- 94
2019-04-10 04:00:00 9 4 Noroeste 15 Noroeste 0 -- -- 92
2019-04-10 03:00:00 9.1 2 Noroeste 7 Oeste 0 -- -- 91
2019-04-10 02:00:00 10.6 6 Oeste 12 Oeste 0 -- -- 87
2019-04-10 01:00:00 11.3 9 Noroeste 16 Oeste 0 -- -- 84
2019-04-10 00:00:00 11.4 9 Oeste 14 Oeste 0 -- -- 84
2019-04-09 23:00:00 11.7 6 Noroeste 15 Noroeste 0 -- -- 83
2019-04-09 22:00:00 12.8 5 Noroeste 12 Noroeste 0 -- -- 82
2019-04-09 21:00:00 15.5 9 Noroeste 25 Noroeste 0 -- -- 69
2019-04-09 20:00:00 17.5 12 Noroeste 28 Oeste 0 -- -- 59
2019-04-09 19:00:00 17.1 20 Oeste 39 Oeste 0 -- -- 65
2019-04-09 18:00:00 18.1 27 Oeste 39 Oeste 0 -- -- 61
2019-04-09 17:00:00 18.1 18 Oeste 33 Oeste 0 -- -- 57
2019-04-09 16:00:00 17.2 11 Oeste 39 Oeste 0 -- -- 66
2019-04-09 15:00:00 18.3 20 Oeste 33 Oeste 0 -- -- 53
2019-04-09 14:00:00 17.6 18 Noroeste 33 Oeste 0 -- -- 59
2019-04-09 13:00:00 17.2 12 Oeste 24 Oeste 0 -- -- 66
2019-04-09 12:00:00 15.7 17 Oeste 28 Noroeste 0 -- -- 71
2019-04-09 11:00:00 14.8 16 Noroeste 28 Oeste 0 -- -- 79
2019-04-09 10:00:00 12.3 9 Oeste 17 Oeste 0 -- -- 89
2019-04-09 09:00:00 8.4 3 Norte 6 Norte 0 -- -- 97
2019-04-09 08:00:00 7.4 0 Calma 5 Norte 0 -- -- 96
2019-04-09 07:00:00 7.4 0 Calma 6 Norte 0 -- -- 96
2019-04-09 06:00:00 7.4 0 Calma 7 Noroeste 0 -- -- 96
2019-04-09 05:00:00 7.5 0 Calma 7 Norte 0 -- -- 94
2019-04-09 04:00:00 8 3 Noroeste 9 Norte 0 -- -- 94
2019-04-09 03:00:00 8.2 3 Noroeste 6 Norte 0 -- -- 93
2019-04-09 02:00:00 9 2 Noroeste 9 Noroeste 0 -- -- 91
2019-04-09 01:00:00 10.6 8 Noroeste 18 Noroeste 0 -- -- 84
2019-04-09 00:00:00 11.2 12 Noroeste 18 Oeste 0 -- -- 83
2019-04-08 23:00:00 11.9 5 Noroeste 20 Oeste 0 -- -- 86
2019-04-08 22:00:00 13.1 9 Oeste 20 Sudoeste 0 -- -- 88
2019-04-08 21:00:00 14.4 13 Sudoeste 34 Oeste 0 -- -- 84
2019-04-08 20:00:00 16.2 22 Oeste 37 Oeste 0 -- -- 75
2019-04-08 19:00:00 16.8 17 Oeste 33 Oeste 0 -- -- 77
2019-04-08 18:00:00 17.1 19 Oeste 29 Sudoeste 0 -- -- 79
2019-04-08 17:00:00 14.3 17 Oeste 30 Oeste 0.4 -- -- 91
2019-04-08 16:00:00 14.4 19 Oeste 31 Oeste 0.2 -- -- 88
2019-04-08 15:00:00 17 13 Sudoeste 28 Oeste 0 -- -- 85
2019-04-08 14:00:00 17.8 18 Oeste 29 Oeste 0 -- -- 79
2019-04-08 13:00:00 15.9 12 Oeste 31 Sudoeste 5.8 -- -- 95
2019-04-08 12:00:00 15.8 13 Sudoeste 28 Sudoeste 2.6 -- -- 96
2019-04-08 11:00:00 14.3 6 Oeste 22 Sudoeste 5.8 -- -- 96
2019-04-08 10:00:00 14.6 9 Sudoeste 17 Sur 0 -- -- 98
2019-04-08 09:00:00 13.7 6 Sudoeste 17 Sudoeste 0 -- -- 98
2019-04-08 08:00:00 13.5 10 Sudoeste 19 Sudoeste 0 -- -- 98
2019-04-08 07:00:00 13.2 4 Sudoeste 9 Sudoeste 0 -- -- 98
2019-04-08 06:00:00 12.9 4 Sudoeste 9 Sudoeste 0 -- -- 97
2019-04-08 05:00:00 13.3 7 Sudoeste 14 Sudoeste 0 -- -- 97
2019-04-08 04:00:00 13.5 8 Sudoeste 14 Sudoeste 0 -- -- 97
2019-04-08 03:00:00 13.5 6 Sudoeste 18 Sudoeste 0 -- -- 95
2019-04-08 02:00:00 14 12 Oeste 23 Sudoeste 0 -- -- 94
2019-04-08 01:00:00 14.5 12 Sudoeste 21 Sudoeste 0 -- -- 95
2019-04-08 00:00:00 14.5 10 Oeste 19 Sudoeste 0 -- -- 95
2019-04-07 23:00:00 14.5 9 Oeste 23 Sudoeste 0 -- -- 95
2019-04-07 22:00:00 14.5 11 Sudoeste 19 Sudoeste 0 -- -- 93
2019-04-07 21:00:00 14.9 12 Oeste 29 Oeste 0 -- -- 91
2019-04-07 20:00:00 15 20 Oeste 40 Noroeste 1.2 -- -- 92
2019-04-07 19:00:00 15.5 13 Sudoeste 30 Oeste 1.4 -- -- 95
2019-04-07 18:00:00 15.4 17 Oeste 32 Sudoeste 0.8 -- -- 95
2019-04-07 17:00:00 14.6 11 Sur 23 Sudoeste 0.6 -- -- 93
2019-04-07 16:00:00 16 15 Sudoeste 28 Oeste 0 -- -- 83
2019-04-07 15:00:00 16.2 13 Oeste 31 Oeste 0 -- -- 73
2019-04-07 14:00:00 15 12 Noroeste 31 Oeste 0 -- -- 78
2019-04-07 13:00:00 15.6 21 Oeste 35 Oeste 0 -- -- 70
2019-04-07 12:00:00 15.7 19 Oeste 32 Oeste 0 -- -- 66
2019-04-07 11:00:00 13.8 13 Oeste 21 Oeste 0 -- -- 77
2019-04-07 10:00:00 11.8 6 Noroeste 10 Noroeste 0 -- -- 90
2019-04-07 09:00:00 9.5 4 Noroeste 9 Noroeste 0 -- -- 95
2019-04-07 08:00:00 8.8 2 Noroeste 17 Noroeste 0 -- -- 94
2019-04-07 07:00:00 8.1 3 Norte 11 Noroeste 0 -- -- 94
2019-04-07 06:00:00 9.5 7 Oeste 15 Oeste 0 -- -- 91
2019-04-07 05:00:00 10.1 9 Oeste 20 Oeste 0.2 -- -- 92
2019-04-07 04:00:00 10.3 9 Oeste 20 Oeste 0 -- -- 88
2019-04-07 03:00:00 9.9 13 Oeste 22 Oeste 0 -- -- 86
2019-04-07 02:00:00 10.4 15 Oeste 24 Oeste 0 -- -- 84
2019-04-07 01:00:00 10.8 16 Oeste 29 Oeste 0 -- -- 81
2019-04-07 00:00:00 10.8 18 Oeste 29 Oeste 0 -- -- 78
2019-04-06 23:00:00 11.5 19 Oeste 26 Oeste 0 -- -- 75
2019-04-06 22:00:00 12.4 17 Oeste 31 Oeste 0 -- -- 73
2019-04-06 21:00:00 13.5 17 Oeste 31 Oeste 0 -- -- 70
2019-04-06 20:00:00 14.3 17 Oeste 31 Oeste 0 -- -- 72
2019-04-06 19:00:00 14.8 18 Oeste 33 Oeste 0.2 -- -- 75
2019-04-06 18:00:00 12.7 23 Oeste 41 Oeste 3.2 -- -- 82
2019-04-06 17:00:00 13.1 17 Oeste 42 Oeste 0.6 -- -- 87
2019-04-06 16:00:00 15.3 19 Oeste 36 Oeste 0 -- -- 68
2019-04-06 15:00:00 11.6 16 Noroeste 46 Noroeste 1.4 -- -- 85
2019-04-06 14:00:00 16 23 Oeste 39 Oeste 0 -- -- 58
2019-04-06 13:00:00 14.6 20 Oeste 33 Oeste 0 -- -- 67
2019-04-06 12:00:00 13.2 21 Oeste 35 Oeste 0 -- -- 72
2019-04-06 11:00:00 12.8 17 Oeste 27 Noroeste 0 -- -- 75
2019-04-06 10:00:00 9.9 8 Noroeste 15 Noroeste 0 -- -- 89
2019-04-06 09:00:00 8.2 7 Noroeste 10 Noroeste 0 -- -- 96
2019-04-06 08:00:00 6.5 2 Noroeste 7 Norte 0.2 -- -- 95
2019-04-06 07:00:00 6.4 0 Calma 6 Noroeste 0 -- -- 94
2019-04-06 06:00:00 7.2 5 Noroeste 14 Noroeste 0 -- -- 92
2019-04-06 05:00:00 7.4 8 Noroeste 13 Noroeste 0 -- -- 93
2019-04-06 04:00:00 7 8 Noroeste 10 Oeste 0 -- -- 95
2019-04-06 03:00:00 6.7 3 Noroeste 8 Oeste 0 -- -- 93
2019-04-06 02:00:00 7.5 4 Sudoeste 15 Sudoeste 0 -- -- 91
2019-04-06 01:00:00 7.9 6 Oeste 13 Sudoeste 0 -- -- 90
2019-04-06 00:00:00 8.1 3 Oeste 13 Oeste 0 -- -- 91
2019-04-05 23:00:00 8.5 6 Oeste 10 Sudoeste 0 -- -- 88
2019-04-05 22:00:00 9.2 5 Noroeste 36 Noroeste 0.6 -- -- 89
2019-04-05 21:00:00 10.7 19 Oeste 29 Oeste 0 -- -- 78
2019-04-05 20:00:00 11.1 14 Oeste 34 Oeste 0 -- -- 85
2019-04-05 19:00:00 10.5 22 Oeste 56 Noroeste 1.6 -- -- 85
2019-04-05 18:00:00 15.4 22 Oeste 46 Oeste 0 -- -- 53
2019-04-05 17:00:00 15.6 26 Oeste 40 Oeste 0 -- -- 53
2019-04-05 16:00:00 14.8 24 Oeste 41 Noroeste 0 -- -- 57
2019-04-05 15:00:00 13.6 24 Oeste 50 Noroeste 0 -- -- 61
2019-04-05 14:00:00 12.9 27 Oeste 53 Noroeste 0 -- -- 65
2019-04-05 13:00:00 13.3 35 Oeste 53 Oeste 0 -- -- 61
2019-04-05 12:00:00 12.4 25 Noroeste 46 Noroeste 0 -- -- 72
2019-04-05 11:00:00 11.5 21 Noroeste 37 Oeste 0 -- -- 83
2019-04-05 10:00:00 11.1 5 Sudoeste 11 Sudoeste 0 -- -- 96
2019-04-05 09:00:00 10.3 4 Oeste 11 Sudoeste 0.2 -- -- 96
2019-04-05 08:00:00 10 4 Sudoeste 13 Sudoeste 2.8 -- -- 96
2019-04-05 07:00:00 10 6 Sur 31 Noroeste 0.6 -- -- 93
2019-04-05 06:00:00 10.4 23 Oeste 47 Oeste 2.4 -- -- 95
2019-04-05 05:00:00 10.5 8 Sur 14 Sur 1 -- -- 95
2019-04-05 04:00:00 9.7 4 Sur 13 Oeste 0.2 -- -- 89
2019-04-05 03:00:00 10.6 10 Oeste 17 Oeste 0 -- -- 78
2019-04-05 02:00:00 10.9 8 Oeste 18 Oeste 0 -- -- 69
2019-04-05 01:00:00 11 13 Oeste 22 Oeste 0 -- -- 67
2019-04-05 00:00:00 11.4 12 Oeste 28 Oeste 0 -- -- 65
2019-04-04 23:00:00 12.1 15 Noroeste 26 Oeste 0 -- -- 62
2019-04-04 22:00:00 12.5 9 Sudoeste 22 Oeste 0 -- -- 66
2019-04-04 21:00:00 13.9 14 Sudoeste 38 Oeste 0 -- -- 56
2019-04-04 20:00:00 16.2 18 Sudoeste 37 Sudoeste 0 -- -- 47
2019-04-04 19:00:00 18 25 Oeste 44 Oeste 0 -- -- 41
2019-04-04 18:00:00 19.9 19 Oeste 32 Oeste 0 -- -- 30
2019-04-04 17:00:00 20.1 15 Oeste 29 Oeste 0 -- -- 30
2019-04-04 16:00:00 19.7 13 Oeste 25 Sudoeste 0 -- -- 32
2019-04-04 15:00:00 18.4 7 Sudoeste 23 Oeste 0 -- -- 31
2019-04-04 14:00:00 17.5 13 Oeste 22 Oeste 0 -- -- 38
2019-04-04 13:00:00 16.3 4 Noroeste 17 Noroeste 0 -- -- 36
2019-04-04 12:00:00 14.8 5 Noroeste 10 Oeste 0 -- -- 45
2019-04-04 11:00:00 12.8 4 Oeste 10 Oeste 0 -- -- 50
2019-04-04 10:00:00 9.2 4 Noroeste 7 Noroeste 0 -- -- 77
2019-04-04 09:00:00 5.2 0 Calma 5 Noroeste 0 -- -- 92
2019-04-04 08:00:00 4.7 2 Norte 4 Norte 0 -- -- 91
2019-04-04 07:00:00 5.3 0 Calma 6 Noroeste 0 -- -- 90
2019-04-04 06:00:00 5.7 3 Noroeste 8 Noroeste 0 -- -- 89
2019-04-04 05:00:00 6.3 2 Noroeste 4 Noroeste 0 -- -- 87
2019-04-04 04:00:00 7.1 2 Noroeste 10 Noroeste 0 -- -- 83
2019-04-04 03:00:00 7.7 3 Noroeste 15 Noroeste 0 -- -- 82
2019-04-04 02:00:00 8.4 5 Noroeste 11 Noroeste 0 -- -- 80
2019-04-04 01:00:00 9.5 4 Noroeste 10 Norte 0 -- -- 76
2019-04-04 00:00:00 9.9 4 Noroeste 10 Noroeste 0 -- -- 76
2019-04-03 23:00:00 11.6 4 Noroeste 12 Noroeste 0 -- -- 72
2019-04-03 22:00:00 13.4 5 Noroeste 13 Noroeste 0 -- -- 66
2019-04-03 21:00:00 16.4 11 Noroeste 25 Noroeste 0 -- -- 52
2019-04-03 20:00:00 19.2 16 Noroeste 31 Noroeste 0 -- -- 47
2019-04-03 19:00:00 20.2 21 Noroeste 35 Oeste 0 -- -- 41
2019-04-03 18:00:00 21.2 21 Oeste 42 Oeste 0 -- -- 39
2019-04-03 17:00:00 21.4 23 Oeste 39 Oeste 0 -- -- 45
2019-04-03 16:00:00 21.5 23 Oeste 37 Oeste 0 -- -- 46
2019-04-03 15:00:00 21.5 22 Oeste 37 Noroeste 0 -- -- 42
2019-04-03 14:00:00 21.1 17 Oeste 27 Oeste 0 -- -- 43
2019-04-03 13:00:00 19.9 16 Oeste 24 Oeste 0 -- -- 52
2019-04-03 12:00:00 18.5 4 Noroeste 8 Noroeste 0 -- -- 68
2019-04-03 11:00:00 15.4 0 Calma 5 Oeste 0 -- -- 81
2019-04-03 10:00:00 12.1 2 Oeste 5 Noroeste 0 -- -- 96
2019-04-03 09:00:00 8.9 2 Noroeste 6 Noroeste 0 -- -- 98
2019-04-03 08:00:00 8.5 3 Noroeste 5 Noroeste 0 -- -- 96
2019-04-03 07:00:00 8.9 0 Calma 5 Noroeste 0 -- -- 96
2019-04-03 06:00:00 9.5 0 Calma 4 Norte 0 -- -- 95
2019-04-03 05:00:00 10.2 0 Calma 5 Norte 0 -- -- 95
2019-04-03 04:00:00 10.5 0 Calma 3 Noroeste 0 -- -- 94
2019-04-03 03:00:00 11.5 0 Calma 6 Norte 0 -- -- 92
2019-04-03 02:00:00 12.4 4 Norte 6 Norte 0 -- -- 92
2019-04-03 01:00:00 13 0 Calma 16 Noroeste 0 -- -- 89
2019-04-03 00:00:00 14.3 9 Noroeste 13 Noroeste 0 -- -- 86
2019-04-02 23:00:00 15.1 5 Noroeste 9 Oeste 0 -- -- 84
2019-04-02 22:00:00 16.5 3 Noroeste 9 Sudoeste 0 -- -- 80
2019-04-02 21:00:00 18.5 5 Oeste 18 Sudoeste 0 -- -- 72
2019-04-02 20:00:00 20.3 9 Sudoeste 17 Sudoeste 0 -- -- 65
2019-04-02 19:00:00 21.6 8 Sur 13 Sur 0 -- -- 51
2019-04-02 18:00:00 22.7 5 Oeste 10 Sudoeste 0 -- -- 49
2019-04-02 17:00:00 22 3 Oeste 11 Este 0 -- -- 52
2019-04-02 16:00:00 21.2 8 Este 16 Este 0 -- -- 54
2019-04-02 15:00:00 20.4 6 Este 12 Este 0 -- -- 61
2019-04-02 14:00:00 18.6 4 Este 14 Sudeste 0 -- -- 68
2019-04-02 13:00:00 17 6 Este 14 Este 0 -- -- 74
2019-04-02 12:00:00 15.6 7 Nordeste 15 Nordeste 0 -- -- 84
2019-04-02 11:00:00 13.3 11 Nordeste 17 Nordeste 0 -- -- 99
2019-04-02 10:00:00 11.9 5 Nordeste 10 Nordeste 0 -- -- 99
2019-04-02 09:00:00 11.3 3 Nordeste 8 Nordeste 0 -- -- 98
2019-04-02 08:00:00 11.1 0 Calma 3 Noroeste 0 -- -- 98
2019-04-02 07:00:00 10.7 0 Calma 3 Nordeste 0 -- -- 98
2019-04-02 06:00:00 10 0 Calma 5 Noroeste 0 -- -- 98
2019-04-02 05:00:00 9.5 3 Noroeste 6 Norte 0 -- -- 98
2019-04-02 04:00:00 9.7 2 Norte 5 Norte 0 -- -- 97
2019-04-02 03:00:00 10.3 0 Calma 3 Oeste 0 -- -- 97
2019-04-02 02:00:00 10.8 0 Calma 5 Sudeste 0 -- -- 96
2019-04-02 01:00:00 11.5 0 Calma 5 Este 0 -- -- 96
2019-04-02 00:00:00 12.2 0 Calma 4 Noroeste 0 -- -- 94
2019-04-01 23:00:00 12.8 0 Calma 6 Sudoeste 0 -- -- 94
2019-04-01 22:00:00 14 0 Calma 10 Oeste 0 -- -- 89
2019-04-01 21:00:00 15.6 6 Oeste 19 Sudoeste 0 -- -- 83
2019-04-01 20:00:00 17.5 13 Sudoeste 21 Sudoeste 0 -- -- 76
2019-04-01 19:00:00 17.2 2 Nordeste 10 Norte 1 -- -- 75
2019-04-01 18:00:00 16.7 3 Nordeste 15 Sudeste 0.4 -- -- 80
2019-04-01 17:00:00 17.3 7 Sudeste 14 Sur 0 -- -- 72
2019-04-01 16:00:00 16.4 10 Sudeste 16 Sudeste 1.2 -- -- 79
2019-04-01 15:00:00 13.4 11 Este 27 Sudeste 21.8 -- -- 89
2019-04-01 14:00:00 15.9 19 Sudeste 32 Sudeste 2.4 -- -- 86
2019-04-01 13:00:00 18 4 Este 10 Sudeste 0 -- -- 76
2019-04-01 12:00:00 16.3 7 Este 13 Sudeste 0 -- -- 87
2019-04-01 11:00:00 14.5 3 Este 6 Sudeste 0 -- -- 93
2019-04-01 10:00:00 13.8 3 Sudoeste 8 Sudeste 0 -- -- 96
2019-04-01 09:00:00 13.6 5 Este 10 Sudeste 0.2 -- -- 96
2019-04-01 08:00:00 13.5 0 Calma 11 Oeste 7.6 -- -- 95
2019-04-01 07:00:00 13.6 4 Este 10 Este 0 -- -- 97
2019-04-01 06:00:00 13.4 2 Sudeste 7 Este 0 -- -- 97
2019-04-01 05:00:00 13.1 2 Nordeste 15 Sudeste 0 -- -- 98
2019-04-01 04:00:00 13.1 9 Sudeste 15 Sudeste 0.2 -- -- 97
2019-04-01 03:00:00 12.9 4 Sur 14 Sur 3.4 -- -- 96
2019-04-01 02:00:00 11.3 0 Calma 6 Este 0 -- -- 92
2019-04-01 01:00:00 12 4 Este 6 Sudeste 0 -- -- 92
2019-04-01 00:00:00 12.8 2 Sudeste 8 Sudeste 0 -- -- 88
2019-03-31 23:00:00 13.7 2 Oeste 5 Sur 0 -- -- 86
2019-03-31 22:00:00 14.7 0 Calma 9 Noroeste 0 -- -- 83
2019-03-31 21:00:00 16.2 4 Noroeste 12 Oeste 0 -- -- 76
2019-03-31 20:00:00 17.8 9 Oeste 24 Sudoeste 0 -- -- 66
2019-03-31 19:00:00 17.4 15 Oeste 29 Noroeste 0 -- -- 68
2019-03-31 18:00:00 19.5 14 Oeste 28 Noroeste 0 -- -- 57
2019-03-31 17:00:00 21.6 6 Sur 15 Norte 0 -- -- 48
2019-03-31 16:00:00 20.3 10 Norte 24 Norte 0 -- -- 54
2019-03-31 15:00:00 20.5 8 Norte 21 Norte 0 -- -- 53
2019-03-31 14:00:00 20.9 6 Norte 15 Este 0 -- -- 56
2019-03-31 13:00:00 20.3 8 Este 19 Este 0 -- -- 57
2019-03-31 12:00:00 17.9 7 Este 18 Nordeste 0 -- -- 65
2019-03-31 11:00:00 15.3 10 Nordeste 17 Este 0 -- -- 75
2019-03-31 10:00:00 13.9 4 Nordeste 12 Nordeste 0 -- -- 79
2019-03-31 09:00:00 12.2 3 Oeste 12 Nordeste 0 -- -- 83
2019-03-31 08:00:00 12.4 6 Nordeste 10 Nordeste 0 -- -- 82
2019-03-31 07:00:00 12.8 2 Este 11 Norte 0 -- -- 83
2019-03-31 06:00:00 13 7 Norte 12 Noroeste 0 -- -- 84
2019-03-31 05:00:00 13.5 7 Oeste 10 Oeste 0 -- -- 84
2019-03-31 03:00:00 14.1 3 Noroeste 9 Norte 0 -- -- 80
2019-03-31 01:00:00 14.2 2 Noroeste 8 Noroeste 0 -- -- 79
2019-03-31 00:00:00 14 2 Noroeste 10 Noroeste 0 -- -- 78
2019-03-30 23:00:00 13.4 6 Noroeste 10 Oeste 0 -- -- 77
2019-03-30 22:00:00 14.1 5 Noroeste 11 Sudoeste 0 -- -- 73
2019-03-30 21:00:00 16.1 5 Oeste 12 Sudoeste 0 -- -- 67
2019-03-30 20:00:00 17.6 10 Sudoeste 27 Sur 0 -- -- 61
2019-03-30 19:00:00 20.4 17 Sur 29 Sudoeste 0 -- -- 54
2019-03-30 18:00:00 23.7 10 Sur 19 Sudeste 0 -- -- 40
2019-03-30 17:00:00 24.3 10 Sur 26 Sur 0 -- -- 39
2019-03-30 16:00:00 24.2 9 Sudeste 27 Este 0 -- -- 38
2019-03-30 15:00:00 23.7 16 Este 29 Nordeste 0 -- -- 39
2019-03-30 14:00:00 23 15 Nordeste 29 Este 0 -- -- 43
2019-03-30 13:00:00 21.3 13 Este 33 Este 0 -- -- 46
2019-03-30 12:00:00 19.6 15 Este 27 Este 0 -- -- 51
2019-03-30 11:00:00 17.5 18 Nordeste 28 Nordeste 0 -- -- 57
2019-03-30 10:00:00 15.6 11 Nordeste 24 Nordeste 0 -- -- 65
2019-03-30 09:00:00 12.9 7 Nordeste 17 Nordeste 0 -- -- 76
2019-03-30 08:00:00 9.4 5 Noroeste 14 Nordeste 0 -- -- 87
2019-03-30 07:00:00 8.7 3 Noroeste 9 Noroeste 0 -- -- 87
2019-03-30 06:00:00 8.4 6 Noroeste 12 Norte 0 -- -- 86
2019-03-30 05:00:00 8.6 4 Norte 10 Noroeste 0 -- -- 84
2019-03-30 04:00:00 9.5 4 Norte 15 Nordeste 0 -- -- 81
2019-03-30 03:00:00 7.7 4 Noroeste 8 Noroeste 0 -- -- 87
2019-03-30 02:00:00 8.5 4 Noroeste 5 Noroeste 0 -- -- 83
2019-03-30 01:00:00 9.5 0 Calma 5 Oeste 0 -- -- 81
2019-03-30 00:00:00 10.9 0 Calma 4 Sur 0 -- -- 77
2019-03-29 23:00:00 11.6 0 Calma 5 Noroeste 0 -- -- 76
2019-03-29 22:00:00 13.1 0 Calma 5 Oeste 0 -- -- 73
2019-03-29 21:00:00 15 2 Norte 6 Sur 0 -- -- 67
2019-03-29 20:00:00 17.1 4 Sudoeste 17 Sur 0 -- -- 61
2019-03-29 19:00:00 18.9 6 Sur 22 Sur 0 -- -- 55
2019-03-29 18:00:00 21.5 13 Sur 24 Sur 0 -- -- 46
2019-03-29 17:00:00 23.3 10 Sur 19 Sudoeste 0 -- -- 35
2019-03-29 16:00:00 23.2 6 Sudeste 19 Sudeste 0 -- -- 34
2019-03-29 15:00:00 22.6 6 Sudeste 23 Este 0 -- -- 34
2019-03-29 14:00:00 21.4 12 Nordeste 23 Este 0 -- -- 35
2019-03-29 13:00:00 20.3 12 Este 24 Este 0 -- -- 38
2019-03-29 12:00:00 18.8 11 Nordeste 22 Nordeste 0 -- -- 40
2019-03-29 11:00:00 16.8 14 Este 22 Nordeste 0 -- -- 47
2019-03-29 10:00:00 14 10 Nordeste 20 Nordeste 0 -- -- 57
2019-03-29 09:00:00 11.4 10 Nordeste 23 Nordeste 0 -- -- 65
2019-03-29 08:00:00 9.2 9 Nordeste 17 Nordeste 0 -- -- 72
2019-03-29 07:00:00 7.8 9 Nordeste 15 Nordeste 0 -- -- 77
2019-03-29 06:00:00 7.5 2 Noroeste 6 Oeste 0 -- -- 76
2019-03-29 05:00:00 9.1 0 Calma 17 Nordeste 0 -- -- 72
2019-03-29 04:00:00 10 10 Nordeste 19 Nordeste 0 -- -- 72
2019-03-29 03:00:00 9.9 13 Nordeste 20 Nordeste 0 -- -- 71
2019-03-29 02:00:00 10.5 10 Nordeste 21 Nordeste 0 -- -- 64
2019-03-29 01:00:00 10.6 12 Nordeste 20 Nordeste 0 -- -- 53
2019-03-29 00:00:00 9.7 9 Nordeste 18 Nordeste 0 -- -- 51
2019-03-28 23:00:00 7.8 6 Noroeste 8 Noroeste 0 -- -- 58
2019-03-28 22:00:00 10.6 3 Oeste 8 Sudeste 0 -- -- 50
2019-03-28 21:00:00 15 6 Este 14 Este 0 -- -- 36
2019-03-28 20:00:00 17.7 9 Este 23 Este 0 -- -- 30
2019-03-28 19:00:00 20.3 17 Este 31 Este 0 -- -- 27
2019-03-28 18:00:00 21.5 21 Este 37 Este 0 -- -- 29
2019-03-28 17:00:00 22.3 22 Este 37 Este 0 -- -- 33
2019-03-28 16:00:00 22.7 17 Este 35 Este 0 -- -- 31
2019-03-28 15:00:00 22.2 21 Este 37 Este 0 -- -- 30
2019-03-28 14:00:00 21.5 21 Este 36 Este 0 -- -- 33
2019-03-28 13:00:00 20.4 21 Este 37 Este 0 -- -- 36
2019-03-28 12:00:00 18.8 26 Este 41 Este 0 -- -- 41
2019-03-28 11:00:00 17.2 24 Este 37 Este 0 -- -- 47
2019-03-28 10:00:00 14.7 19 Este 31 Este 0 -- -- 59
2019-03-28 09:00:00 12.2 19 Nordeste 33 Nordeste 0 -- -- 71
2019-03-28 08:00:00 9.6 16 Nordeste 24 Nordeste 0 -- -- 78
2019-03-28 07:00:00 9 15 Nordeste 23 Nordeste 0 -- -- 79
2019-03-28 06:00:00 9.2 12 Nordeste 20 Nordeste 0 -- -- 78
2019-03-28 05:00:00 9.2 6 Nordeste 16 Nordeste 0 -- -- 73
2019-03-28 04:00:00 7.8 3 Nordeste 14 Nordeste 0 -- -- 74
2019-03-28 03:00:00 7.2 5 Norte 13 Nordeste 0 -- -- 78
2019-03-28 02:00:00 6.5 2 Noroeste 7 Noroeste 0 -- -- 79
2019-03-28 01:00:00 7.3 2 Noroeste 6 Noroeste 0 -- -- 73
2019-03-28 00:00:00 7.8 5 Noroeste 5 Noroeste 0 -- -- 74
2019-03-27 23:00:00 10.7 0 Calma 9 Sur 0 -- -- 65
2019-03-27 22:00:00 13.1 6 Sur 14 Sur 0 -- -- 57
2019-03-27 21:00:00 14.6 8 Sur 20 Sur 0 -- -- 50
2019-03-27 20:00:00 16.8 12 Sur 19 Sur 0 -- -- 43
2019-03-27 19:00:00 19.9 10 Sur 32 Sudeste 0 -- -- 35
2019-03-27 18:00:00 22.1 13 Este 28 Este 0 -- -- 23
2019-03-27 17:00:00 22.5 13 Este 26 Este 0 -- -- 25
2019-03-27 16:00:00 22 12 Este 33 Nordeste 0 -- -- 27
2019-03-27 15:00:00 21.5 17 Este 31 Este 0 -- -- 30
2019-03-27 14:00:00 20.9 17 Este 38 Este 0 -- -- 34
2019-03-27 13:00:00 20.2 19 Este 38 Este 0 -- -- 36
2019-03-27 12:00:00 18.9 19 Este 40 Este 0 -- -- 42
2019-03-27 11:00:00 18 22 Este 36 Este 0 -- -- 44
2019-03-27 10:00:00 16.1 23 Este 33 Este 0 -- -- 49
2019-03-27 09:00:00 13.4 17 Este 26 Nordeste 0 -- -- 62
2019-03-27 08:00:00 11.1 16 Nordeste 29 Nordeste 0 -- -- 73
2019-03-27 07:00:00 11.2 20 Nordeste 30 Nordeste 0 -- -- 74
2019-03-27 06:00:00 11.4 13 Nordeste 23 Nordeste 0 -- -- 76
2019-03-27 05:00:00 11.7 12 Nordeste 26 Nordeste 0 -- -- 78
2019-03-27 04:00:00 10 3 Noroeste 7 Este 0 -- -- 78
2019-03-27 03:00:00 10 4 Noroeste 8 Noroeste 0 -- -- 79
2019-03-27 02:00:00 10.8 4 Nordeste 8 Sudoeste 0 -- -- 78
2019-03-27 01:00:00 11.4 0 Calma 5 Este 0 -- -- 74
2019-03-27 00:00:00 13.2 2 Nordeste 3 Norte 0 -- -- 68
2019-03-26 23:00:00 15.7 2 Sudoeste 9 Sur 0 -- -- 58
2019-03-26 22:00:00 16.6 5 Sur 13 Sur 0 -- -- 53
2019-03-26 21:00:00 17.1 4 Sur 12 Sur 0 -- -- 53
2019-03-26 20:00:00 18.8 0 Calma 8 Sudoeste 0 -- -- 51
2019-03-26 19:00:00 20.8 6 Sur 19 Sur 0 -- -- 43
2019-03-26 18:00:00 22.4 10 Sur 22 Sudoeste 0 -- -- 40
2019-03-26 17:00:00 23.8 16 Sur 30 Sur 0 -- -- 39
2019-03-26 16:00:00 25.2 15 Sur 40 Sudeste 0 -- -- 40
2019-03-26 15:00:00 26.8 11 Este 31 Este 0 -- -- 35
2019-03-26 14:00:00 25.5 14 Este 32 Este 0 -- -- 35
2019-03-26 13:00:00 23.9 22 Este 36 Nordeste 0 -- -- 39
2019-03-26 12:00:00 22.5 23 Este 36 Este 0 -- -- 43
2019-03-26 11:00:00 20.4 20 Este 35 Nordeste 0 -- -- 47
2019-03-26 10:00:00 17.8 18 Nordeste 33 Nordeste 0 -- -- 53
2019-03-26 09:00:00 15.6 17 Nordeste 31 Nordeste 0 -- -- 61
2019-03-26 08:00:00 13.9 14 Nordeste 27 Nordeste 0 -- -- 68
2019-03-26 07:00:00 13.7 17 Nordeste 30 Nordeste 0 -- -- 67
2019-03-26 06:00:00 13.6 19 Nordeste 30 Nordeste 0 -- -- 67
2019-03-26 05:00:00 14 17 Nordeste 26 Nordeste 0 -- -- 65
2019-03-26 04:00:00 13.8 13 Nordeste 23 Nordeste 0 -- -- 67
2019-03-26 03:00:00 13.7 13 Nordeste 23 Nordeste 0 -- -- 65
2019-03-26 02:00:00 13.7 12 Nordeste 21 Este 0 -- -- 63
2019-03-26 01:00:00 12.4 3 Nordeste 10 Nordeste 0 -- -- 69
2019-03-26 00:00:00 10.7 2 Noroeste 8 Noroeste 0 -- -- 75
2019-03-25 23:00:00 12.3 3 Noroeste 6 Noroeste 0 -- -- 65
2019-03-25 22:00:00 15.5 2 Este 8 Sudeste 0 -- -- 60
2019-03-25 21:00:00 18.3 6 Sudeste 13 Este 0 -- -- 51
2019-03-25 20:00:00 20.4 8 Este 18 Este 0 -- -- 47
2019-03-25 19:00:00 23.1 15 Este 29 Este 0 -- -- 40
2019-03-25 18:00:00 24.2 21 Este 37 Este 0 -- -- 36
2019-03-25 17:00:00 24.6 23 Este 41 Este 0 -- -- 37
2019-03-25 16:00:00 24.4 23 Nordeste 38 Este 0 -- -- 37
2019-03-25 15:00:00 24.3 19 Este 36 Este 0 -- -- 35
2019-03-25 14:00:00 23.4 21 Este 38 Este 0 -- -- 35
2019-03-25 13:00:00 22.6 21 Este 35 Nordeste 0 -- -- 40
2019-03-25 12:00:00 20.5 23 Nordeste 35 Nordeste 0 -- -- 44
2019-03-25 11:00:00 18.5 24 Nordeste 35 Este 0 -- -- 50
2019-03-25 10:00:00 15 17 Nordeste 27 Nordeste 0 -- -- 63
2019-03-25 09:00:00 11.5 9 Nordeste 19 Nordeste 0 -- -- 76
2019-03-25 08:00:00 9.8 10 Nordeste 16 Nordeste 0 -- -- 82
2019-03-25 07:00:00 8.6 0 Calma 6 Este 0 -- -- 80
2019-03-25 06:00:00 9.8 2 Sudoeste 12 Nordeste 0 -- -- 77
2019-03-25 05:00:00 11.5 8 Nordeste 14 Norte 0 -- -- 71
2019-03-25 04:00:00 11.6 14 Nordeste 18 Nordeste 0 -- -- 70
2019-03-25 03:00:00 11.2 9 Nordeste 14 Nordeste 0 -- -- 72
2019-03-25 02:00:00 9.7 5 Nordeste 10 Nordeste 0 -- -- 79
2019-03-25 01:00:00 10.3 3 Oeste 8 Noroeste 0 -- -- 74
2019-03-25 00:00:00 11.2 4 Noroeste 9 Noroeste 0 -- -- 71